Mount Eden, California
Current Conditions -  °F | °C
As of 2:54 PM on Friday 28 Nov 2014 (Local Time) from KHWD Reporting Station
Clear Clear  
Wind Chill: 59°   Ceiling: Unl
Heat Index: 59°   Visibility: 10mi
Dew Point: 51°   Wind: 7mph
Humidity: 75%   Direction: 290°WNW
Pressure: 29.91"   Gusts: NA
Location:  37.6276°N, 122.104°W
Report Text: KHWD 282254Z 29006KT 10SM CLR 15/11 A2991 RMK AO2 SLP140 T01500106
Loading
Personal Weather Stations






























Interactive Weather Map New forecast layout! Learn more

10-Day Weather Forecast

Advertisements
Track Severe Weather on mobile